createdAt,value
2023-05-14T00:00:39.254Z,0.00
2023-05-14T00:01:38.704Z,0.00
2023-05-14T00:02:38.887Z,0.00
2023-05-14T00:03:38.851Z,0.00
2023-05-14T00:04:38.329Z,0.00
2023-05-14T00:05:39.077Z,0.00
2023-05-14T00:06:38.663Z,0.00
2023-05-14T00:07:38.777Z,0.00
2023-05-14T00:08:38.950Z,0.00
2023-05-14T00:09:38.752Z,0.00
2023-05-14T00:10:38.504Z,0.00
2023-05-14T00:11:38.897Z,0.00
2023-05-14T00:12:38.784Z,0.00
2023-05-14T00:13:38.134Z,0.00
2023-05-14T00:14:38.061Z,0.00
2023-05-14T00:15:38.800Z,0.00
2023-05-14T00:16:38.155Z,0.00
2023-05-14T00:17:37.917Z,0.00
2023-05-14T00:18:37.976Z,0.00
2023-05-14T00:19:37.818Z,0.00
2023-05-14T00:20:38.061Z,0.00
2023-05-14T00:21:38.094Z,0.00
2023-05-14T00:22:38.241Z,0.00
2023-05-14T00:23:40.459Z,0.00
2023-05-14T00:24:38.237Z,0.00
2023-05-14T00:25:38.428Z,0.00
2023-05-14T00:26:38.454Z,0.00
2023-05-14T00:27:37.984Z,0.00
2023-05-14T00:28:37.777Z,0.00
2023-05-14T00:29:37.746Z,0.00
2023-05-14T00:30:37.715Z,0.00
2023-05-14T00:31:37.618Z,0.00
2023-05-14T00:32:37.763Z,0.00
2023-05-14T00:33:37.594Z,0.00
2023-05-14T00:34:37.725Z,0.00
2023-05-14T00:35:37.534Z,0.00
2023-05-14T00:36:37.632Z,0.00
2023-05-14T00:37:37.517Z,0.00
2023-05-14T00:38:37.739Z,0.00
2023-05-14T00:39:37.528Z,0.00
2023-05-14T00:40:37.549Z,0.00
2023-05-14T00:41:37.523Z,0.00
2023-05-14T00:42:38.359Z,0.00
2023-05-14T00:43:37.501Z,0.00
2023-05-14T00:44:37.465Z,0.00
2023-05-14T00:45:37.487Z,0.00
2023-05-14T00:46:37.520Z,0.00
2023-05-14T00:47:37.632Z,0.00
2023-05-14T00:48:37.584Z,0.00
2023-05-14T00:49:37.583Z,0.00
2023-05-14T00:50:37.688Z,0.00
2023-05-14T00:51:37.343Z,0.00
2023-05-14T00:52:37.553Z,0.00
2023-05-14T00:53:37.426Z,0.00
2023-05-14T00:54:37.333Z,0.00
2023-05-14T00:55:37.297Z,0.00
2023-05-14T00:56:37.261Z,0.00
2023-05-14T00:57:37.580Z,0.00
2023-05-14T00:58:37.237Z,0.00
2023-05-14T00:59:37.258Z,0.00
2023-05-14T01:00:37.294Z,0.00
2023-05-14T01:01:37.266Z,0.00
2023-05-14T01:02:37.373Z,0.00
2023-05-14T01:03:37.379Z,0.00
2023-05-14T01:04:37.239Z,0.00
2023-05-14T01:05:37.408Z,0.00
2023-05-14T01:06:37.905Z,0.00
2023-05-14T01:07:37.495Z,0.00
2023-05-14T01:08:37.317Z,0.00
2023-05-14T01:09:37.256Z,0.00
2023-05-14T01:10:37.263Z,0.00
2023-05-14T01:11:37.304Z,0.00
2023-05-14T01:12:37.270Z,0.00
2023-05-14T01:13:38.000Z,0.00
2023-05-14T01:14:37.426Z,0.00
2023-05-14T01:15:37.376Z,0.00
2023-05-14T01:16:37.357Z,0.00
2023-05-14T01:17:37.615Z,0.00
2023-05-14T01:18:37.283Z,0.00
2023-05-14T01:19:36.970Z,0.00
2023-05-14T01:20:37.532Z,0.00
2023-05-14T01:21:37.485Z,0.00
2023-05-14T01:22:37.582Z,0.00
2023-05-14T01:23:36.921Z,0.00
2023-05-14T01:24:36.892Z,0.00
2023-05-14T01:25:36.933Z,0.00
2023-05-14T01:26:36.933Z,0.00
2023-05-14T01:27:37.485Z,0.00
2023-05-14T01:28:37.040Z,0.00
2023-05-14T01:29:36.997Z,0.00
2023-05-14T01:30:36.890Z,0.00
2023-05-14T01:31:37.010Z,0.00
2023-05-14T01:32:36.825Z,0.00
2023-05-14T01:33:36.866Z,0.00
2023-05-14T01:34:36.983Z,0.00
2023-05-14T01:35:36.908Z,0.00
2023-05-14T01:36:36.961Z,0.00
2023-05-14T01:37:37.020Z,0.00
2023-05-14T01:38:37.029Z,0.00
2023-05-14T01:39:37.121Z,0.00
2023-05-14T01:40:36.835Z,0.00
2023-05-14T01:41:37.198Z,0.00
2023-05-14T01:42:37.168Z,0.00
2023-05-14T01:43:37.355Z,0.00
2023-05-14T01:44:37.247Z,0.00
2023-05-14T01:45:37.071Z,0.00
2023-05-14T01:46:37.339Z,0.00
2023-05-14T01:47:37.404Z,0.00
2023-05-14T01:48:36.690Z,0.00
2023-05-14T01:49:37.349Z,0.00
2023-05-14T01:50:37.461Z,0.00
2023-05-14T01:51:36.831Z,0.00
2023-05-14T01:52:37.394Z,0.00
2023-05-14T01:53:37.392Z,0.00
2023-05-14T01:54:37.380Z,0.00
2023-05-14T01:55:37.270Z,0.00
2023-05-14T01:56:36.490Z,0.00
2023-05-14T01:57:36.729Z,0.00
2023-05-14T01:58:37.265Z,0.00
2023-05-14T01:59:36.690Z,0.00
2023-05-14T02:00:37.306Z,0.00
2023-05-14T02:01:37.606Z,0.00
2023-05-14T02:02:36.902Z,0.00
2023-05-14T02:03:37.308Z,0.00
2023-05-14T02:04:37.574Z,0.00
2023-05-14T02:05:37.298Z,0.00
2023-05-14T02:06:37.270Z,0.00
2023-05-14T02:07:36.943Z,0.00
2023-05-14T02:08:36.302Z,0.00
2023-05-14T02:09:36.296Z,0.00
2023-05-14T02:10:36.379Z,0.00
2023-05-14T02:11:36.291Z,0.00
2023-05-14T02:12:36.397Z,0.00
2023-05-14T02:13:36.413Z,0.00
2023-05-14T02:14:36.465Z,0.00
2023-05-14T02:15:36.517Z,0.00
2023-05-14T02:16:36.534Z,0.00
2023-05-14T02:17:36.609Z,0.00
2023-05-14T02:18:37.147Z,0.00
2023-05-14T02:19:36.236Z,0.00
2023-05-14T02:20:36.176Z,0.00
2023-05-14T02:21:36.252Z,0.00
2023-05-14T02:22:36.152Z,0.00
2023-05-14T02:23:41.696Z,0.00
2023-05-14T02:24:37.648Z,0.00
2023-05-14T02:25:36.145Z,0.00
2023-05-14T02:26:36.162Z,0.00
2023-05-14T02:27:36.210Z,0.00
2023-05-14T02:28:36.164Z,0.00
2023-05-14T02:29:36.152Z,0.00
2023-05-14T02:30:36.151Z,0.00
2023-05-14T02:31:36.939Z,0.00
2023-05-14T02:32:36.224Z,0.00
2023-05-14T02:33:37.045Z,0.00
2023-05-14T02:34:36.224Z,0.00
2023-05-14T02:35:36.153Z,0.00
2023-05-14T02:36:36.030Z,0.00
2023-05-14T02:37:36.242Z,0.00
2023-05-14T02:38:36.151Z,0.00
2023-05-14T02:39:36.144Z,0.00
2023-05-14T02:40:36.047Z,0.00
2023-05-14T02:41:36.175Z,0.00
2023-05-14T02:42:35.904Z,0.00
2023-05-14T02:43:36.173Z,0.00
2023-05-14T02:44:36.146Z,0.00
2023-05-14T02:45:36.163Z,0.00
2023-05-14T02:46:36.214Z,0.00
2023-05-14T02:47:37.977Z,0.00
2023-05-14T02:48:36.506Z,0.00
2023-05-14T02:49:36.161Z,0.00
2023-05-14T02:50:35.972Z,0.00
2023-05-14T02:51:35.889Z,1.00
2023-05-14T02:52:35.974Z,0.00
2023-05-14T02:53:35.991Z,0.00
2023-05-14T02:54:36.023Z,0.00
2023-05-14T02:55:36.059Z,0.00
2023-05-14T02:56:36.096Z,1.00
2023-05-14T02:57:36.121Z,1.00
2023-05-14T02:58:36.328Z,1.00
2023-05-14T02:59:36.180Z,0.00
2023-05-14T03:00:36.191Z,0.00
2023-05-14T03:01:36.207Z,0.00
2023-05-14T03:02:36.291Z,2.00
2023-05-14T03:03:35.623Z,1.00
2023-05-14T03:04:35.796Z,1.00
2023-05-14T03:05:36.276Z,0.00
2023-05-14T03:06:36.260Z,0.00
2023-05-14T03:07:35.894Z,5.00
2023-05-14T03:08:36.175Z,5.00
2023-05-14T03:09:38.116Z,4.00
2023-05-14T03:10:35.497Z,2.00
2023-05-14T03:11:36.195Z,1.00
2023-05-14T03:12:36.303Z,2.00
2023-05-14T03:13:36.154Z,2.00
2023-05-14T03:14:36.150Z,5.00
2023-05-14T03:15:36.163Z,5.00
2023-05-14T03:16:35.449Z,5.00
2023-05-14T03:17:35.910Z,4.00
2023-05-14T03:18:36.285Z,6.00
2023-05-14T03:19:35.391Z,9.00
2023-05-14T03:20:36.181Z,9.00
2023-05-14T03:21:36.159Z,13.00
2023-05-14T03:22:36.110Z,10.00
2023-05-14T03:23:36.162Z,11.00
2023-05-14T03:24:35.831Z,15.00
2023-05-14T03:25:36.066Z,15.00
2023-05-14T03:26:35.980Z,18.00
2023-05-14T03:27:36.150Z,22.00
2023-05-14T03:28:35.303Z,26.00
2023-05-14T03:29:35.332Z,29.00
2023-05-14T03:30:35.412Z,35.00
2023-05-14T03:31:35.250Z,35.00
2023-05-14T03:32:35.468Z,39.00
2023-05-14T03:33:35.486Z,43.00
2023-05-14T03:34:35.554Z,49.00
2023-05-14T03:35:35.670Z,51.00
2023-05-14T03:36:35.303Z,55.00
2023-05-14T03:37:35.195Z,61.00
2023-05-14T03:38:35.122Z,65.00
2023-05-14T03:39:35.692Z,71.00
2023-05-14T03:40:35.765Z,77.00
2023-05-14T03:41:35.712Z,82.00
2023-05-14T03:42:35.891Z,89.00
2023-05-14T03:43:35.137Z,95.00
2023-05-14T03:44:35.025Z,101.00
2023-05-14T03:45:35.989Z,110.00
2023-05-14T03:46:35.840Z,117.00
2023-05-14T03:47:35.469Z,126.00
2023-05-14T03:48:35.039Z,131.00
2023-05-14T03:49:35.817Z,138.00
2023-05-14T03:50:36.092Z,148.00
2023-05-14T03:51:36.112Z,160.00
2023-05-14T03:52:36.173Z,169.00
2023-05-14T03:53:34.962Z,178.00
2023-05-14T03:54:34.933Z,182.00
2023-05-14T03:55:35.773Z,194.00
2023-05-14T03:56:34.903Z,202.00
2023-05-14T03:57:35.047Z,215.00
2023-05-14T03:58:35.708Z,224.00
2023-05-14T03:59:35.614Z,233.00
2023-05-14T04:00:35.759Z,242.00
2023-05-14T04:01:35.665Z,249.00
2023-05-14T04:02:35.624Z,258.00
2023-05-14T04:03:35.984Z,276.00
2023-05-14T04:04:35.710Z,283.00
2023-05-14T04:05:35.569Z,293.00
2023-05-14T04:06:35.744Z,303.00
2023-05-14T04:07:34.807Z,313.00
2023-05-14T04:08:34.796Z,327.00
2023-05-14T04:09:34.831Z,335.00
2023-05-14T04:10:34.834Z,344.00
2023-05-14T04:11:34.929Z,358.00
2023-05-14T04:12:34.730Z,374.00
2023-05-14T04:13:35.065Z,382.00
2023-05-14T04:14:35.033Z,396.00
2023-05-14T04:15:35.073Z,404.00
2023-05-14T04:16:35.133Z,415.00
2023-05-14T04:17:35.265Z,433.00
2023-05-14T04:18:35.351Z,437.00
2023-05-14T04:19:35.226Z,449.00
2023-05-14T04:20:35.270Z,463.00
2023-05-14T04:21:35.294Z,473.00
2023-05-14T04:22:35.426Z,483.00
2023-05-14T04:23:35.368Z,495.00
2023-05-14T04:24:35.028Z,504.00
2023-05-14T04:25:35.420Z,519.00
2023-05-14T04:26:35.328Z,527.00
2023-05-14T04:27:35.224Z,534.00
2023-05-14T04:28:35.383Z,543.00
2023-05-14T04:29:35.471Z,555.00
2023-05-14T04:30:35.201Z,563.00
2023-05-14T04:31:35.425Z,573.00
2023-05-14T04:32:35.297Z,584.00
2023-05-14T04:33:35.164Z,591.00
2023-05-14T04:34:35.325Z,607.00
2023-05-14T04:35:35.701Z,616.00
2023-05-14T04:36:35.145Z,624.00
2023-05-14T04:37:35.052Z,631.00
2023-05-14T04:38:35.777Z,639.00
2023-05-14T04:39:35.102Z,653.00
2023-05-14T04:40:35.268Z,663.00
2023-05-14T04:41:34.367Z,666.00
2023-05-14T04:42:35.064Z,681.00
2023-05-14T04:43:34.266Z,683.00
2023-05-14T04:44:34.236Z,691.00
2023-05-14T04:45:34.520Z,698.00
2023-05-14T04:46:34.469Z,706.00
2023-05-14T04:47:34.367Z,717.00
2023-05-14T04:48:34.362Z,724.00
2023-05-14T04:49:34.194Z,730.00
2023-05-14T04:50:34.446Z,735.00
2023-05-14T04:51:34.207Z,746.00
2023-05-14T04:52:34.540Z,752.00
2023-05-14T04:53:36.224Z,755.00
2023-05-14T04:54:34.142Z,762.00
2023-05-14T04:55:34.133Z,773.00
2023-05-14T04:56:34.089Z,776.00
2023-05-14T04:57:34.116Z,787.00
2023-05-14T04:58:35.234Z,791.00
2023-05-14T04:59:34.099Z,801.00
2023-05-14T05:00:34.101Z,810.00
2023-05-14T05:01:34.077Z,815.00
2023-05-14T05:02:34.146Z,823.00
2023-05-14T05:03:34.139Z,833.00
2023-05-14T05:04:34.091Z,839.00
2023-05-14T05:05:34.117Z,846.00
2023-05-14T05:06:34.100Z,856.00
2023-05-14T05:07:33.986Z,860.00
2023-05-14T05:08:33.966Z,871.00
2023-05-14T05:09:34.110Z,878.00
2023-05-14T05:10:33.973Z,888.00
2023-05-14T05:11:34.099Z,893.00
2023-05-14T05:12:34.123Z,900.00
2023-05-14T05:13:34.232Z,907.00
2023-05-14T05:14:34.141Z,915.00
2023-05-14T05:15:34.151Z,925.00
2023-05-14T05:16:34.217Z,926.00
2023-05-14T05:17:33.830Z,928.00
2023-05-14T05:18:34.176Z,937.00
2023-05-14T05:19:43.129Z,940.00
2023-05-14T05:20:35.523Z,944.00
2023-05-14T05:21:34.170Z,949.00
2023-05-14T05:22:34.097Z,954.00
2023-05-14T05:23:33.776Z,954.00
2023-05-14T05:24:33.894Z,958.00
2023-05-14T05:25:33.835Z,964.00
2023-05-14T05:26:33.700Z,966.00
2023-05-14T05:27:33.912Z,970.00
2023-05-14T05:28:34.023Z,978.00
2023-05-14T05:29:33.689Z,981.00
2023-05-14T05:30:34.047Z,982.00
2023-05-14T05:31:34.113Z,979.00
2023-05-14T05:32:33.715Z,981.00
2023-05-14T05:33:34.100Z,989.00
2023-05-14T05:34:34.117Z,994.00
2023-05-14T05:35:34.162Z,995.00
2023-05-14T05:36:33.850Z,1000.00
2023-05-14T05:37:34.116Z,1000.00
2023-05-14T05:38:34.098Z,1004.00
2023-05-14T05:39:34.216Z,1008.00
2023-05-14T05:40:34.112Z,1007.00
2023-05-14T05:41:33.615Z,1013.00
2023-05-14T05:42:33.582Z,1022.00
2023-05-14T05:43:34.093Z,1029.00
2023-05-14T05:44:34.102Z,1035.00
2023-05-14T05:45:34.105Z,1035.00
2023-05-14T05:46:34.198Z,1039.00
2023-05-14T05:47:33.522Z,1039.00
2023-05-14T05:48:34.490Z,1038.00
2023-05-14T05:49:34.104Z,1039.00
2023-05-14T05:50:34.131Z,1053.00
2023-05-14T05:51:34.105Z,1038.00
2023-05-14T05:52:33.971Z,1055.00
2023-05-14T05:53:34.119Z,1069.00
2023-05-14T05:54:34.119Z,1062.00
2023-05-14T05:55:34.174Z,1055.00
2023-05-14T05:56:34.096Z,1053.00
2023-05-14T05:57:34.106Z,1058.00
2023-05-14T05:58:33.823Z,1064.00
2023-05-14T05:59:34.091Z,1070.00
2023-05-14T06:00:33.976Z,1075.00
2023-05-14T06:01:33.646Z,1072.00
2023-05-14T06:02:33.383Z,1072.00
2023-05-14T06:03:33.237Z,1072.00
2023-05-14T06:04:33.349Z,1072.00
2023-05-14T06:05:33.463Z,1072.00
2023-05-14T06:06:33.450Z,1071.00
2023-05-14T06:07:33.483Z,1070.00
2023-05-14T06:08:33.520Z,1077.00
2023-05-14T06:09:33.547Z,1079.00
2023-05-14T06:10:33.664Z,1090.00
2023-05-14T06:11:33.465Z,1083.00
2023-05-14T06:12:33.671Z,1082.00
2023-05-14T06:13:33.712Z,1080.00
2023-05-14T06:14:33.727Z,1087.00
2023-05-14T06:15:33.788Z,1096.00
2023-05-14T06:16:33.719Z,1097.00
2023-05-14T06:17:33.177Z,1099.00
2023-05-14T06:18:33.147Z,1105.00
2023-05-14T06:19:33.934Z,1100.00
2023-05-14T06:20:33.728Z,1093.00
2023-05-14T06:21:33.722Z,1086.00
2023-05-14T06:22:34.031Z,1102.00
2023-05-14T06:23:33.922Z,1099.00
2023-05-14T06:24:33.736Z,1106.00
2023-05-14T06:25:33.902Z,1115.00
2023-05-14T06:26:33.859Z,1128.00
2023-05-14T06:27:33.100Z,1115.00
2023-05-14T06:28:33.635Z,1118.00
2023-05-14T06:29:33.848Z,1117.00
2023-05-14T06:30:33.670Z,1116.00
2023-05-14T06:31:33.498Z,1115.00
2023-05-14T06:32:33.753Z,1116.00
2023-05-14T06:33:33.028Z,1115.00
2023-05-14T06:34:33.782Z,1111.00
2023-05-14T06:35:33.773Z,1132.00
2023-05-14T06:36:33.130Z,1132.00
2023-05-14T06:37:33.520Z,1151.00
2023-05-14T06:38:33.695Z,1114.00
2023-05-14T06:39:32.753Z,1087.00
2023-05-14T06:40:33.574Z,1101.00
2023-05-14T06:41:33.132Z,1116.00
2023-05-14T06:42:33.537Z,1168.00
2023-05-14T06:43:32.752Z,1137.00
2023-05-14T06:44:32.928Z,1148.00
2023-05-14T06:45:33.359Z,1136.00
2023-05-14T06:46:32.962Z,1140.00
2023-05-14T06:47:33.041Z,1138.00
2023-05-14T06:48:33.066Z,1128.00
2023-05-14T06:49:32.945Z,1151.00
2023-05-14T06:50:33.248Z,1135.00
2023-05-14T06:51:33.316Z,1127.00
2023-05-14T06:52:33.192Z,1141.00
2023-05-14T06:53:33.233Z,1136.00
2023-05-14T06:54:33.288Z,1130.00
2023-05-14T06:55:32.568Z,1119.00
2023-05-14T06:56:32.961Z,1109.00
2023-05-14T06:57:33.381Z,1092.00
2023-05-14T06:58:32.965Z,1091.00
2023-05-14T06:59:33.493Z,1087.00
2023-05-14T07:00:33.354Z,1071.00
2023-05-14T07:01:33.377Z,1068.00
2023-05-14T07:02:33.450Z,1052.00
2023-05-14T07:03:33.406Z,1052.00
2023-05-14T07:04:32.697Z,1041.00
2023-05-14T07:05:33.365Z,1031.00
2023-05-14T07:06:33.389Z,1021.00
2023-05-14T07:07:33.271Z,991.00
2023-05-14T07:08:33.338Z,982.00
2023-05-14T07:09:32.869Z,983.00
2023-05-14T07:10:33.158Z,966.00
2023-05-14T07:11:33.376Z,987.00
2023-05-14T07:12:33.127Z,1006.00
2023-05-14T07:13:33.632Z,1030.00
2023-05-14T07:14:33.167Z,1052.00
2023-05-14T07:15:33.176Z,1075.00
2023-05-14T07:16:33.258Z,1104.00
2023-05-14T07:17:33.311Z,1128.00
2023-05-14T07:18:33.074Z,2210.00
2023-05-14T07:19:32.687Z,2401.00
2023-05-14T07:20:32.266Z,1552.00
2023-05-14T07:21:33.112Z,1243.00
2023-05-14T07:22:32.427Z,1184.00
2023-05-14T07:23:32.402Z,822.00
2023-05-14T07:24:32.509Z,1140.00
2023-05-14T07:25:32.379Z,912.00
2023-05-14T07:26:32.590Z,871.00
2023-05-14T07:27:32.631Z,764.00
2023-05-14T07:28:32.643Z,997.00
2023-05-14T07:29:32.122Z,1465.00
2023-05-14T07:30:32.074Z,1745.00
2023-05-14T07:31:32.725Z,1744.00
2023-05-14T07:32:32.749Z,3348.00
2023-05-14T07:33:32.750Z,1483.00
2023-05-14T07:34:32.774Z,2892.00
2023-05-14T07:35:32.786Z,1559.00
2023-05-14T07:36:32.921Z,3918.00
2023-05-14T07:37:32.865Z,2190.00
2023-05-14T07:38:32.862Z,2047.00
2023-05-14T07:39:32.930Z,2028.00
2023-05-14T07:40:32.844Z,2131.00
2023-05-14T07:41:32.616Z,1936.00
2023-05-14T07:42:36.548Z,2445.00
2023-05-14T07:43:32.800Z,2342.00
2023-05-14T07:44:31.957Z,2524.00
2023-05-14T07:45:31.889Z,1767.00
2023-05-14T07:46:32.757Z,2580.00
2023-05-14T07:47:32.932Z,1720.00
2023-05-14T07:48:32.638Z,3960.00
2023-05-14T07:49:32.726Z,2431.00
2023-05-14T07:50:32.666Z,1750.00
2023-05-14T07:51:32.538Z,2166.00
2023-05-14T07:52:33.529Z,3853.00
2023-05-14T07:53:32.605Z,1791.00
2023-05-14T07:54:32.503Z,3131.00
2023-05-14T07:55:32.662Z,1914.00
2023-05-14T07:56:32.571Z,2005.00
2023-05-14T07:57:32.493Z,2491.00
2023-05-14T07:58:31.735Z,2071.00
2023-05-14T07:59:31.709Z,2052.00
2023-05-14T08:00:31.687Z,1982.00
2023-05-14T08:01:31.783Z,1893.00
2023-05-14T08:02:31.852Z,1869.00
2023-05-14T08:03:31.990Z,1855.00
2023-05-14T08:04:31.946Z,1840.00
2023-05-14T08:05:31.949Z,1830.00
2023-05-14T08:06:31.627Z,1830.00
2023-05-14T08:07:31.999Z,1822.00
2023-05-14T08:08:32.029Z,1810.00
2023-05-14T08:09:32.128Z,1788.00
2023-05-14T08:10:32.209Z,1762.00
2023-05-14T08:11:32.166Z,1752.00
2023-05-14T08:12:31.563Z,1746.00
2023-05-14T08:13:32.268Z,1743.00
2023-05-14T08:14:32.388Z,1784.00
2023-05-14T08:15:31.948Z,1820.00
2023-05-14T08:16:32.370Z,1839.00
2023-05-14T08:17:32.408Z,1852.00
2023-05-14T08:18:31.887Z,1863.00
2023-05-14T08:19:32.436Z,1863.00
2023-05-14T08:20:32.601Z,6090.00
2023-05-14T08:21:31.464Z,1021.00
2023-05-14T08:22:32.374Z,1494.00
2023-05-14T08:23:32.280Z,1237.00
2023-05-14T08:24:32.186Z,1485.00
2023-05-14T08:25:32.739Z,1927.00
2023-05-14T08:26:32.248Z,2414.00
2023-05-14T08:27:32.158Z,1314.00
2023-05-14T08:28:32.060Z,1769.00
2023-05-14T08:29:32.228Z,3644.00
2023-05-14T08:30:32.095Z,2915.00
2023-05-14T08:31:32.316Z,1873.00
2023-05-14T08:32:31.402Z,3624.00
2023-05-14T08:33:31.884Z,1848.00
2023-05-14T08:34:31.264Z,2095.00
2023-05-14T08:35:32.138Z,2072.00
2023-05-14T08:36:31.329Z,2079.00
2023-05-14T08:37:31.230Z,2093.00
2023-05-14T08:38:31.200Z,2109.00
2023-05-14T08:39:31.219Z,2131.00
2023-05-14T08:40:31.214Z,2361.00
2023-05-14T08:41:31.348Z,1977.00
2023-05-14T08:42:31.450Z,2792.00
2023-05-14T08:43:31.197Z,1990.00
2023-05-14T08:44:31.433Z,2115.00
2023-05-14T08:45:31.556Z,2152.00
2023-05-14T08:46:31.118Z,2157.00
2023-05-14T08:47:31.624Z,2162.00
2023-05-14T08:48:31.606Z,2160.00
2023-05-14T08:49:31.096Z,2162.00
2023-05-14T08:50:31.957Z,2164.00
2023-05-14T08:51:31.689Z,2167.00
2023-05-14T08:52:31.727Z,2345.00
2023-05-14T08:53:31.810Z,2116.00
2023-05-14T08:54:31.814Z,2288.00
2023-05-14T08:55:31.779Z,2497.00
2023-05-14T08:56:31.895Z,2260.00
2023-05-14T08:57:31.833Z,2750.00
2023-05-14T08:58:31.013Z,1755.00
2023-05-14T08:59:30.942Z,2043.00
2023-05-14T09:00:31.800Z,2061.00
2023-05-14T09:01:31.077Z,2014.00
2023-05-14T09:02:31.710Z,2124.00
2023-05-14T09:03:31.535Z,2113.00
2023-05-14T09:04:30.955Z,2083.00
2023-05-14T09:05:31.583Z,2687.00
2023-05-14T09:06:31.172Z,2048.00
2023-05-14T09:07:31.644Z,1815.00
2023-05-14T09:08:31.557Z,3042.00
2023-05-14T09:09:32.321Z,2750.00
2023-05-14T09:10:30.835Z,2457.00
2023-05-14T09:11:31.521Z,1449.00
2023-05-14T09:12:31.670Z,1864.00
2023-05-14T09:13:31.569Z,1743.00
2023-05-14T09:14:31.533Z,4541.00
2023-05-14T09:15:31.045Z,1707.00
2023-05-14T09:16:31.814Z,2309.00
2023-05-14T09:17:31.502Z,2499.00
2023-05-14T09:18:30.862Z,2884.00
2023-05-14T09:19:31.523Z,2381.00
2023-05-14T09:20:31.422Z,2604.00
2023-05-14T09:21:33.429Z,2381.00
2023-05-14T09:22:31.493Z,3152.00
2023-05-14T09:23:31.393Z,2322.00
2023-05-14T09:24:31.555Z,2923.00
2023-05-14T09:25:31.453Z,2225.00
2023-05-14T09:26:30.602Z,2255.00
2023-05-14T09:27:30.547Z,4322.00
2023-05-14T09:28:30.565Z,2270.00
2023-05-14T09:29:30.559Z,1735.00
2023-05-14T09:30:30.616Z,2004.00
2023-05-14T09:31:30.699Z,2460.00
2023-05-14T09:32:30.622Z,1928.00
2023-05-14T09:33:30.474Z,2252.00
2023-05-14T09:34:30.686Z,2220.00
2023-05-14T09:35:30.658Z,2767.00
2023-05-14T09:36:30.669Z,2060.00
2023-05-14T09:37:30.805Z,2182.00
2023-05-14T09:38:30.743Z,2249.00
2023-05-14T09:39:30.733Z,2076.00
2023-05-14T09:40:30.743Z,2252.00
2023-05-14T09:41:30.414Z,3525.00
2023-05-14T09:42:30.483Z,2804.00
2023-05-14T09:43:30.402Z,1868.00
2023-05-14T09:44:30.382Z,2072.00
2023-05-14T09:45:30.840Z,2180.00
2023-05-14T09:46:30.393Z,2355.00
2023-05-14T09:47:30.555Z,2465.00
2023-05-14T09:48:30.301Z,2505.00
2023-05-14T09:49:30.547Z,3290.00
2023-05-14T09:50:30.548Z,2419.00
2023-05-14T09:51:30.557Z,3002.00
2023-05-14T09:52:30.389Z,2392.00
2023-05-14T09:53:30.592Z,2653.00
2023-05-14T09:54:30.617Z,2637.00
2023-05-14T09:55:30.583Z,2618.00
2023-05-14T09:56:30.604Z,2609.00
2023-05-14T09:57:30.588Z,2596.00
2023-05-14T09:58:30.154Z,7555.00
2023-05-14T09:59:30.601Z,1812.00
2023-05-14T10:00:30.214Z,2379.00
2023-05-14T10:01:30.661Z,2959.00
2023-05-14T10:02:30.665Z,3984.00
2023-05-14T10:03:30.669Z,1924.00
2023-05-14T10:04:30.871Z,2548.00
2023-05-14T10:05:34.786Z,3042.00
2023-05-14T10:06:30.753Z,2130.00
2023-05-14T10:07:30.761Z,4734.00
2023-05-14T10:08:30.783Z,3127.00
2023-05-14T10:09:30.781Z,1910.00
2023-05-14T10:10:30.796Z,3908.00
2023-05-14T10:11:30.811Z,1702.00
2023-05-14T10:12:30.822Z,2000.00
2023-05-14T10:13:30.807Z,3061.00
2023-05-14T10:14:30.818Z,1856.00
2023-05-14T10:15:30.827Z,2170.00
2023-05-14T10:16:30.891Z,2655.00
2023-05-14T10:17:30.945Z,2829.00
2023-05-14T10:18:30.837Z,2787.00
2023-05-14T10:19:30.658Z,2821.00
2023-05-14T10:20:30.786Z,2892.00
2023-05-14T10:21:29.942Z,2931.00
2023-05-14T10:22:29.889Z,3052.00
2023-05-14T10:23:30.777Z,10225.00
2023-05-14T10:24:30.663Z,3543.00
2023-05-14T10:25:29.875Z,3253.00
2023-05-14T10:26:29.873Z,3067.00
2023-05-14T10:27:30.034Z,2764.00
2023-05-14T10:28:29.787Z,2552.00
2023-05-14T10:29:29.978Z,1620.00
2023-05-14T10:30:29.999Z,3601.00
2023-05-14T10:31:30.046Z,2433.00
2023-05-14T10:32:29.934Z,2250.00
2023-05-14T10:33:30.110Z,2079.00
2023-05-14T10:34:30.730Z,1634.00
2023-05-14T10:35:30.256Z,2108.00
2023-05-14T10:36:30.296Z,1985.00
2023-05-14T10:37:30.262Z,2598.00
2023-05-14T10:38:30.413Z,4762.00
2023-05-14T10:39:30.361Z,2601.00
2023-05-14T10:40:30.372Z,3891.00
2023-05-14T10:41:30.485Z,2159.00
2023-05-14T10:42:30.447Z,2931.00
2023-05-14T10:43:30.350Z,4546.00
2023-05-14T10:44:30.477Z,2867.00
2023-05-14T10:45:29.671Z,4517.00
2023-05-14T10:46:30.339Z,2708.00
2023-05-14T10:47:30.723Z,3118.00
2023-05-14T10:48:29.905Z,6037.00
2023-05-14T10:49:42.427Z,2500.00
2023-05-14T10:50:30.798Z,3017.00
2023-05-14T10:51:30.146Z,3120.00
2023-05-14T10:52:30.031Z,6967.00
2023-05-14T10:53:30.052Z,2460.00
2023-05-14T10:54:29.596Z,3100.00
2023-05-14T10:55:29.541Z,3063.00
2023-05-14T10:56:29.412Z,3000.00
2023-05-14T10:57:30.294Z,2977.00
2023-05-14T10:58:30.218Z,7897.00
2023-05-14T10:59:30.110Z,2187.00
2023-05-14T11:00:30.279Z,2076.00
2023-05-14T11:01:30.580Z,2740.00
2023-05-14T11:02:30.389Z,2954.00
2023-05-14T11:03:29.328Z,2953.00
2023-05-14T11:04:29.428Z,3570.00
2023-05-14T11:05:29.493Z,5472.00
2023-05-14T11:06:29.629Z,2068.00
2023-05-14T11:07:29.273Z,6681.00
2023-05-14T11:08:29.525Z,2709.00
2023-05-14T11:09:29.541Z,2682.00
2023-05-14T11:10:29.683Z,2449.00
2023-05-14T11:11:29.805Z,1897.00
2023-05-14T11:12:29.285Z,2321.00
2023-05-14T11:13:29.819Z,3524.00
2023-05-14T11:14:29.211Z,2162.00
2023-05-14T11:15:29.769Z,3602.00
2023-05-14T11:16:29.626Z,3053.00
2023-05-14T11:17:29.185Z,2261.00
2023-05-14T11:18:30.091Z,3098.00
2023-05-14T11:19:30.038Z,3821.00
2023-05-14T11:20:29.138Z,2470.00
2023-05-14T11:21:30.080Z,4582.00
2023-05-14T11:22:30.198Z,2564.00
2023-05-14T11:23:29.352Z,3364.00
2023-05-14T11:24:30.233Z,5308.00
2023-05-14T11:25:30.269Z,2105.00
2023-05-14T11:26:30.295Z,2404.00
2023-05-14T11:27:29.363Z,6352.00
2023-05-14T11:28:29.809Z,3535.00
2023-05-14T11:29:30.394Z,2168.00
2023-05-14T11:30:29.311Z,5206.00
2023-05-14T11:31:29.996Z,3961.00
2023-05-14T11:32:29.377Z,3945.00
2023-05-14T11:33:29.337Z,3687.00
2023-05-14T11:34:29.311Z,3441.00
2023-05-14T11:35:29.016Z,3244.00
2023-05-14T11:36:30.691Z,3149.00
2023-05-14T11:37:29.791Z,2950.00
2023-05-14T11:38:29.697Z,2722.00
2023-05-14T11:39:29.034Z,2566.00
2023-05-14T11:40:32.015Z,2507.00
2023-05-14T11:41:29.458Z,2514.00
2023-05-14T11:42:34.268Z,2558.00
2023-05-14T11:43:28.989Z,1795.00
2023-05-14T11:44:28.982Z,2625.00
2023-05-14T11:45:29.070Z,2865.00
2023-05-14T11:46:29.170Z,7774.00
2023-05-14T11:47:29.217Z,4473.00
2023-05-14T11:48:28.774Z,3351.00
2023-05-14T11:49:29.222Z,3175.00
2023-05-14T11:50:29.334Z,3116.00
2023-05-14T11:51:29.323Z,2923.00
2023-05-14T11:52:29.325Z,2997.00
2023-05-14T11:53:29.363Z,2867.00
2023-05-14T11:54:29.501Z,2914.00
2023-05-14T11:55:29.440Z,1588.00
2023-05-14T11:56:29.477Z,4346.00
2023-05-14T11:57:29.393Z,3489.00
2023-05-14T11:58:29.559Z,3018.00
2023-05-14T11:59:29.608Z,2922.00
2023-05-14T12:00:28.629Z,2670.00
2023-05-14T12:01:29.542Z,2312.00
2023-05-14T12:02:29.580Z,1462.00
2023-05-14T12:03:29.516Z,3599.00
2023-05-14T12:04:29.521Z,2809.00
2023-05-14T12:05:29.842Z,2277.00
2023-05-14T12:06:28.829Z,1377.00
2023-05-14T12:07:29.208Z,3271.00
2023-05-14T12:08:29.358Z,2575.00
2023-05-14T12:09:29.270Z,2461.00
2023-05-14T12:10:28.454Z,1824.00
2023-05-14T12:11:29.337Z,1788.00
2023-05-14T12:12:29.248Z,7553.00
2023-05-14T12:13:29.146Z,2760.00
2023-05-14T12:14:29.313Z,2503.00
2023-05-14T12:15:29.201Z,2553.00
2023-05-14T12:16:28.481Z,2477.00
2023-05-14T12:17:28.369Z,2491.00
2023-05-14T12:18:28.493Z,2517.00
2023-05-14T12:19:28.483Z,2485.00
2023-05-14T12:20:28.483Z,2395.00
2023-05-14T12:21:28.598Z,2020.00
2023-05-14T12:22:28.303Z,2110.00
2023-05-14T12:23:28.624Z,1668.00
2023-05-14T12:24:28.721Z,5826.00
2023-05-14T12:25:28.736Z,2870.00
2023-05-14T12:26:28.771Z,2683.00
2023-05-14T12:27:28.865Z,2841.00
2023-05-14T12:28:28.249Z,2721.00
2023-05-14T12:29:28.597Z,1704.00